createdAt,value
2023-04-26T00:00:01.478Z,1.97
2023-04-26T00:01:23.856Z,1.89
2023-04-26T00:02:46.572Z,1.58
2023-04-26T00:04:08.493Z,2.66
2023-04-26T00:05:31.364Z,2.55
2023-04-26T00:08:15.274Z,1.87
2023-04-26T00:09:36.613Z,1.88
2023-04-26T00:10:59.982Z,1.58
2023-04-26T00:12:24.411Z,1.29
2023-04-26T00:13:47.999Z,1.43
2023-04-26T00:15:10.384Z,1.88
2023-04-26T00:16:31.946Z,1.43
2023-04-26T00:17:54.483Z,2.48
2023-04-26T00:19:16.411Z,1.42
2023-04-26T00:20:38.985Z,1.49
2023-04-26T00:22:02.375Z,1.42
2023-04-26T00:23:24.449Z,1.67
2023-04-26T00:24:46.517Z,1.40
2023-04-26T00:26:10.357Z,1.38
2023-04-26T00:27:32.329Z,3.49
2023-04-26T00:28:55.565Z,2.17
2023-04-26T00:30:18.149Z,1.57
2023-04-26T00:31:41.990Z,1.45
2023-04-26T00:33:04.088Z,1.73
2023-04-26T00:34:35.193Z,3.27
2023-04-26T00:35:57.681Z,1.59
2023-04-26T00:37:19.087Z,1.81
2023-04-26T00:38:41.069Z,1.77
2023-04-26T00:40:07.430Z,1.99
2023-04-26T00:41:29.511Z,1.68
2023-04-26T00:42:59.426Z,2.12
2023-04-26T00:44:21.827Z,1.56
2023-04-26T00:45:44.176Z,1.22
2023-04-26T00:47:07.866Z,2.53
2023-04-26T00:48:31.032Z,1.71
2023-04-26T00:49:55.782Z,1.76
2023-04-26T00:51:17.469Z,1.47
2023-04-26T00:52:39.874Z,1.43
2023-04-26T00:54:06.584Z,2.17
2023-04-26T00:55:30.340Z,1.38
2023-04-26T00:56:52.080Z,1.63
2023-04-26T00:58:14.328Z,1.52
2023-04-26T00:59:37.042Z,1.53
2023-04-26T01:00:59.086Z,1.94
2023-04-26T01:02:21.015Z,1.34
2023-04-26T01:03:42.860Z,2.17
2023-04-26T01:05:06.039Z,2.90
2023-04-26T01:06:31.108Z,1.85
2023-04-26T01:07:53.149Z,1.99
2023-04-26T01:09:14.989Z,1.71
2023-04-26T01:10:36.632Z,2.09
2023-04-26T01:11:58.041Z,1.33
2023-04-26T01:13:20.124Z,1.61
2023-04-26T01:14:41.976Z,1.29
2023-04-26T01:16:04.452Z,2.11
2023-04-26T01:17:28.430Z,1.56
2023-04-26T01:18:54.424Z,1.54
2023-04-26T01:20:15.969Z,1.80
2023-04-26T01:21:38.577Z,1.67
2023-04-26T01:23:01.540Z,1.87
2023-04-26T01:24:23.334Z,2.61
2023-04-26T01:25:45.671Z,1.75
2023-04-26T01:27:09.662Z,1.81
2023-04-26T01:28:31.425Z,1.89
2023-04-26T01:29:53.342Z,1.43
2023-04-26T01:31:15.554Z,1.23
2023-04-26T01:32:39.906Z,0.94
2023-04-26T01:34:07.634Z,1.18
2023-04-26T01:35:29.444Z,1.23
2023-04-26T01:36:51.074Z,1.27
2023-04-26T01:38:13.057Z,3.41
2023-04-26T01:39:35.196Z,1.25
2023-04-26T01:40:58.783Z,1.32
2023-04-26T01:42:20.632Z,2.12
2023-04-26T01:43:42.546Z,1.90
2023-04-26T01:45:05.328Z,1.14
2023-04-26T01:46:27.758Z,1.48
2023-04-26T01:47:49.759Z,1.57
2023-04-26T01:49:12.200Z,1.21
2023-04-26T01:50:37.554Z,1.18
2023-04-26T01:52:01.693Z,0.91
2023-04-26T01:53:24.078Z,1.34
2023-04-26T01:54:45.619Z,1.66
2023-04-26T01:56:15.101Z,1.57
2023-04-26T01:57:36.803Z,1.67
2023-04-26T01:58:58.990Z,1.36
2023-04-26T02:00:22.504Z,1.61
2023-04-26T02:01:44.707Z,1.41
2023-04-26T02:03:07.393Z,0.75
2023-04-26T02:04:37.192Z,1.36
2023-04-26T02:05:59.541Z,1.83
2023-04-26T02:07:21.300Z,1.23
2023-04-26T02:08:42.822Z,1.42
2023-04-26T02:10:06.524Z,1.45
2023-04-26T02:11:31.799Z,0.89
2023-04-26T02:12:53.001Z,1.03
2023-04-26T02:14:14.887Z,0.71
2023-04-26T02:15:38.433Z,0.91
2023-04-26T02:17:00.513Z,1.20
2023-04-26T02:18:22.588Z,1.14
2023-04-26T02:19:44.479Z,0.79
2023-04-26T02:21:12.502Z,0.80
2023-04-26T02:22:34.814Z,0.77
2023-04-26T02:23:57.428Z,1.29
2023-04-26T02:25:19.510Z,1.26
2023-04-26T02:26:41.265Z,1.11
2023-04-26T02:28:04.413Z,1.31
2023-04-26T02:29:42.217Z,1.06
2023-04-26T02:30:50.101Z,1.04
2023-04-26T02:32:13.409Z,2.27
2023-04-26T02:33:35.414Z,0.96
2023-04-26T02:34:57.725Z,0.89
2023-04-26T02:36:19.733Z,2.32
2023-04-26T02:37:41.947Z,1.11
2023-04-26T02:39:04.068Z,0.99
2023-04-26T02:40:25.654Z,0.79
2023-04-26T02:41:47.675Z,1.26
2023-04-26T02:43:09.381Z,1.93
2023-04-26T02:44:31.245Z,2.07
2023-04-26T02:45:53.592Z,1.75
2023-04-26T02:47:15.099Z,1.74
2023-04-26T02:48:37.014Z,1.67
2023-04-26T02:49:59.522Z,1.79
2023-04-26T02:51:25.003Z,2.66
2023-04-26T02:52:47.344Z,2.24
2023-04-26T02:54:11.069Z,1.13
2023-04-26T02:55:34.962Z,4.38
2023-04-26T02:56:58.434Z,1.19
2023-04-26T02:58:22.370Z,1.13
2023-04-26T02:59:43.507Z,0.84
2023-04-26T03:01:05.829Z,1.63
2023-04-26T03:02:28.803Z,0.81
2023-04-26T03:03:50.720Z,1.41
2023-04-26T03:05:12.560Z,0.57
2023-04-26T03:06:34.721Z,2.18
2023-04-26T03:07:56.842Z,1.10
2023-04-26T03:09:18.004Z,0.79
2023-04-26T03:10:41.296Z,0.75
2023-04-26T03:12:03.222Z,1.36
2023-04-26T03:13:26.605Z,0.84
2023-04-26T03:14:48.424Z,1.08
2023-04-26T03:16:09.806Z,1.02
2023-04-26T03:17:31.440Z,1.12
2023-04-26T03:18:53.083Z,1.96
2023-04-26T03:20:15.389Z,0.84
2023-04-26T03:21:37.105Z,2.87
2023-04-26T03:23:02.853Z,1.03
2023-04-26T03:24:24.838Z,1.38
2023-04-26T03:25:46.976Z,0.74
2023-04-26T03:27:09.712Z,0.99
2023-04-26T03:28:32.963Z,1.08
2023-04-26T03:29:56.461Z,0.68
2023-04-26T03:31:18.029Z,1.14
2023-04-26T03:32:39.967Z,0.93
2023-04-26T03:34:02.664Z,0.74
2023-04-26T03:35:24.509Z,1.24
2023-04-26T03:36:46.458Z,1.12
2023-04-26T03:38:10.829Z,1.02
2023-04-26T03:39:33.160Z,0.98
2023-04-26T03:40:54.579Z,1.21
2023-04-26T03:42:17.963Z,0.97
2023-04-26T03:43:40.581Z,0.81
2023-04-26T03:45:03.791Z,1.07
2023-04-26T03:46:25.940Z,1.04
2023-04-26T03:47:47.892Z,0.77
2023-04-26T03:49:11.060Z,1.14
2023-04-26T03:51:57.124Z,1.20
2023-04-26T03:53:21.413Z,1.08
2023-04-26T03:54:43.350Z,1.06
2023-04-26T03:56:06.212Z,1.27
2023-04-26T03:57:29.518Z,1.35
2023-04-26T03:58:52.012Z,1.19
2023-04-26T04:01:38.138Z,1.40
2023-04-26T04:03:00.915Z,1.62
2023-04-26T04:04:23.184Z,2.27
2023-04-26T04:07:34.178Z,1.07
2023-04-26T04:08:57.789Z,1.73
2023-04-26T04:10:22.686Z,1.44
2023-04-26T04:11:47.565Z,1.08
2023-04-26T04:13:11.968Z,1.38
2023-04-26T04:14:34.307Z,0.88
2023-04-26T04:15:56.018Z,1.06
2023-04-26T04:17:23.774Z,1.07
2023-04-26T04:18:46.035Z,1.51
2023-04-26T04:20:10.863Z,1.32
2023-04-26T04:21:40.293Z,1.21
2023-04-26T04:23:10.285Z,0.70
2023-04-26T04:24:49.786Z,0.82
2023-04-26T04:26:12.439Z,1.47
2023-04-26T04:27:35.000Z,1.36
2023-04-26T04:30:57.533Z,0.95
2023-04-26T04:34:09.429Z,0.81
2023-04-26T04:35:35.688Z,3.72
2023-04-26T04:37:03.252Z,1.21
2023-04-26T04:38:28.304Z,0.92
2023-04-26T04:41:35.473Z,0.73
2023-04-26T04:45:38.814Z,1.60
2023-04-26T04:47:01.450Z,0.79
2023-04-26T04:48:25.644Z,1.09
2023-04-26T04:49:50.512Z,1.30
2023-04-26T04:51:15.820Z,1.31
2023-04-26T04:52:40.246Z,1.26
2023-04-26T04:54:12.479Z,2.42
2023-04-26T04:55:35.873Z,1.82
2023-04-26T05:12:23.602Z,1.21
2023-04-26T05:13:53.803Z,1.23
2023-04-26T05:15:18.841Z,1.09
2023-04-26T05:16:45.108Z,0.96
2023-04-26T06:14:30.771Z,0.61
2023-04-26T06:15:54.211Z,0.92
2023-04-26T06:17:15.676Z,0.93
2023-04-26T06:18:38.414Z,0.58
2023-04-26T06:20:00.411Z,0.54
2023-04-26T06:21:22.110Z,0.67
2023-04-26T06:22:45.949Z,1.27
2023-04-26T06:24:11.912Z,0.96
2023-04-26T06:25:34.791Z,0.77
2023-04-26T06:26:57.373Z,0.92
2023-04-26T06:28:20.617Z,0.70
2023-04-26T06:32:21.414Z,1.01
2023-04-26T06:33:43.569Z,0.85
2023-04-26T06:35:10.709Z,0.76
2023-04-26T06:36:32.924Z,1.02
2023-04-26T06:39:36.101Z,1.23
2023-04-26T06:40:58.521Z,0.95
2023-04-26T06:42:21.157Z,0.51
2023-04-26T06:43:46.261Z,0.44
2023-04-26T06:45:10.414Z,2.53
2023-04-26T06:46:36.431Z,1.32
2023-04-26T06:48:09.846Z,0.61
2023-04-26T06:51:32.377Z,0.94
2023-04-26T06:53:12.094Z,0.41
2023-04-26T06:54:42.811Z,0.92
2023-04-26T06:56:00.335Z,0.88
2023-04-26T06:59:45.924Z,0.38
2023-04-26T07:01:12.194Z,0.44
2023-04-26T07:02:34.745Z,0.65
2023-04-26T07:04:00.483Z,1.46
2023-04-26T07:10:03.313Z,0.76
2023-04-26T07:11:27.198Z,0.74
2023-04-26T07:12:50.633Z,1.62
2023-04-26T07:14:17.092Z,1.49
2023-04-26T07:15:39.716Z,0.89
2023-04-26T07:17:01.986Z,1.04
2023-04-26T07:18:23.931Z,1.71
2023-04-26T07:19:46.394Z,1.41
2023-04-26T07:21:09.624Z,1.59
2023-04-26T07:22:30.909Z,0.87
2023-04-26T07:24:00.889Z,2.51
2023-04-26T07:36:32.056Z,2.12
2023-04-26T07:37:54.909Z,1.76
2023-04-26T07:39:16.385Z,0.98
2023-04-26T07:40:39.635Z,1.23
2023-04-26T07:42:02.337Z,1.54
2023-04-26T07:43:30.498Z,0.88
2023-04-26T07:48:59.249Z,1.61
2023-04-26T07:50:22.142Z,1.07
2023-04-26T07:51:44.279Z,0.59
2023-04-26T07:53:06.009Z,0.52
2023-04-26T07:54:27.707Z,2.51
2023-04-26T07:55:50.195Z,0.91
2023-04-26T07:57:12.141Z,0.68
2023-04-26T07:58:39.739Z,0.83
2023-04-26T08:00:01.053Z,1.16
2023-04-26T08:01:24.847Z,0.51
2023-04-26T08:02:50.297Z,0.87
2023-04-26T08:04:13.164Z,0.55
2023-04-26T08:07:08.133Z,0.99
2023-04-26T08:10:34.356Z,0.74
2023-04-26T08:11:57.444Z,0.68
2023-04-26T08:13:19.247Z,1.20
2023-04-26T08:14:41.559Z,0.74
2023-04-26T08:16:04.416Z,4.52
2023-04-26T08:17:28.282Z,2.21
2023-04-26T08:18:49.928Z,1.89
2023-04-26T08:20:16.922Z,3.34
2023-04-26T08:21:38.622Z,1.27
2023-04-26T08:23:01.539Z,0.53
2023-04-26T08:24:23.832Z,0.97
2023-04-26T08:25:47.708Z,0.82
2023-04-26T08:27:12.644Z,0.66
2023-04-26T08:28:35.324Z,1.56
2023-04-26T08:29:57.562Z,2.66
2023-04-26T08:31:19.826Z,0.47
2023-04-26T08:32:42.266Z,0.90
2023-04-26T08:34:05.434Z,0.48
2023-04-26T08:35:27.853Z,0.43
2023-04-26T08:36:57.637Z,0.86
2023-04-26T08:38:26.725Z,0.95
2023-04-26T08:39:56.350Z,0.54
2023-04-26T08:41:23.752Z,0.76
2023-04-26T08:42:45.568Z,0.74
2023-04-26T08:44:08.063Z,0.54
2023-04-26T08:45:30.088Z,1.15
2023-04-26T08:47:11.378Z,0.59
2023-04-26T08:48:34.229Z,0.76
2023-04-26T08:51:12.311Z,0.82
2023-04-26T08:52:36.865Z,0.77
2023-04-26T08:53:58.953Z,0.84
2023-04-26T08:55:22.929Z,1.92
2023-04-26T08:56:45.335Z,1.43
2023-04-26T08:58:10.428Z,0.66
2023-04-26T08:59:37.214Z,1.50
2023-04-26T09:00:59.762Z,0.82
2023-04-26T09:02:31.248Z,0.66
2023-04-26T09:04:01.440Z,1.50
2023-04-26T09:05:42.906Z,2.03
2023-04-26T09:15:38.918Z,1.29
2023-04-26T09:17:04.162Z,2.47
2023-04-26T09:18:39.896Z,0.89
2023-04-26T09:22:08.855Z,2.17
2023-04-26T09:23:43.602Z,1.22
2023-04-26T09:25:06.590Z,1.32
2023-04-26T09:26:49.258Z,2.18
2023-04-26T09:31:55.111Z,1.72
2023-04-26T09:33:27.451Z,2.87
2023-04-26T09:34:49.927Z,5.26
2023-04-26T09:36:21.902Z,1.92
2023-04-26T09:40:05.425Z,2.76
2023-04-26T09:46:45.115Z,0.50
2023-04-26T09:48:31.528Z,2.27
2023-04-26T09:49:55.999Z,2.18
2023-04-26T09:51:18.672Z,1.40
2023-04-26T09:52:44.087Z,0.71
2023-04-26T09:54:32.520Z,0.81
2023-04-26T10:26:56.030Z,1.17
2023-04-26T10:30:23.325Z,2.73
2023-04-26T10:32:09.203Z,3.09
2023-04-26T10:33:35.976Z,1.27
2023-04-26T10:47:25.965Z,0.64
2023-04-26T10:50:31.860Z,0.82
2023-04-26T10:56:49.087Z,1.06
2023-04-26T10:58:31.013Z,0.93
2023-04-26T11:03:20.471Z,1.61
2023-04-26T11:06:09.652Z,0.82
2023-04-26T11:07:37.839Z,1.53
2023-04-26T11:09:07.626Z,2.12
2023-04-26T11:10:30.692Z,1.64
2023-04-26T11:11:51.940Z,1.79
2023-04-26T11:13:18.105Z,0.66
2023-04-26T11:14:59.339Z,0.58
2023-04-26T11:16:22.956Z,1.15
2023-04-26T11:31:45.024Z,1.05
2023-04-26T11:56:57.417Z,1.69
2023-04-26T11:58:23.637Z,2.58
2023-04-26T11:59:51.579Z,1.74
2023-04-26T12:01:22.230Z,1.43
2023-04-26T12:19:19.188Z,1.23
2023-04-26T12:22:06.186Z,1.73
2023-04-26T12:23:37.148Z,1.26
2023-04-26T12:25:15.427Z,1.31
2023-04-26T12:26:44.071Z,2.92
2023-04-26T12:28:09.427Z,1.46
2023-04-26T12:29:32.205Z,2.17
2023-04-26T12:30:54.352Z,2.16
2023-04-26T12:32:16.034Z,0.89
2023-04-26T12:33:38.439Z,0.96
2023-04-26T12:35:03.147Z,2.27
2023-04-26T12:36:25.045Z,1.59
2023-04-26T12:37:47.856Z,2.86
2023-04-26T12:39:11.579Z,2.46
2023-04-26T12:40:33.917Z,1.59
2023-04-26T12:41:55.686Z,1.48
2023-04-26T12:43:18.130Z,1.46
2023-04-26T12:44:42.834Z,1.71
2023-04-26T13:06:29.733Z,1.79
2023-04-26T13:21:18.765Z,4.42
2023-04-26T13:24:09.363Z,2.32
2023-04-26T13:25:36.134Z,1.94
2023-04-26T13:26:59.671Z,3.69
2023-04-26T13:28:22.579Z,2.28
2023-04-26T13:31:26.750Z,3.06
2023-04-26T13:32:48.915Z,3.41
2023-04-26T13:34:11.023Z,2.78
2023-04-26T13:35:33.461Z,2.38
2023-04-26T13:36:55.523Z,1.82
2023-04-26T13:38:20.963Z,2.27
2023-04-26T13:39:42.941Z,2.59
2023-04-26T13:41:13.006Z,3.31
2023-04-26T13:42:34.948Z,3.75
2023-04-26T13:43:57.181Z,3.38
2023-04-26T13:45:19.663Z,3.07
2023-04-26T13:46:42.389Z,2.26
2023-04-26T13:49:42.623Z,2.16
2023-04-26T13:51:06.908Z,3.32
2023-04-26T13:52:52.968Z,2.91
2023-04-26T13:54:14.754Z,3.73
2023-04-26T13:55:37.191Z,2.62
2023-04-26T13:57:00.408Z,2.80
2023-04-26T13:58:22.424Z,4.54
2023-04-26T13:59:44.206Z,6.26
2023-04-26T14:01:08.875Z,4.49
2023-04-26T14:02:32.981Z,3.08
2023-04-26T14:05:45.236Z,4.03
2023-04-26T14:07:35.558Z,5.93
2023-04-26T14:08:57.517Z,4.50
2023-04-26T14:21:56.250Z,3.74
2023-04-26T14:47:11.232Z,5.22
2023-04-26T14:48:34.084Z,4.98
2023-04-26T14:51:19.209Z,2.96
2023-04-26T14:52:42.492Z,3.26
2023-04-26T14:54:05.137Z,3.52
2023-04-26T14:55:27.832Z,6.14
2023-04-26T14:56:49.618Z,3.77
2023-04-26T14:58:11.187Z,4.26
2023-04-26T14:59:33.054Z,3.91
2023-04-26T15:00:58.354Z,5.33
2023-04-26T15:02:19.777Z,3.06
2023-04-26T15:03:42.180Z,3.40
2023-04-26T15:05:05.581Z,3.28
2023-04-26T15:06:27.635Z,5.94
2023-04-26T15:07:50.476Z,3.92
2023-04-26T15:09:12.888Z,2.99
2023-04-26T15:10:35.539Z,6.76
2023-04-26T15:11:57.670Z,5.01
2023-04-26T15:13:19.311Z,6.05
2023-04-26T15:14:44.621Z,3.33
2023-04-26T15:16:09.116Z,3.62
2023-04-26T15:29:36.484Z,4.64
2023-04-26T15:32:17.989Z,4.36
2023-04-26T15:33:39.896Z,6.19
2023-04-26T15:35:01.710Z,7.34
2023-04-26T15:36:23.793Z,5.96
2023-04-26T15:37:45.629Z,5.04
2023-04-26T15:39:08.387Z,5.73
2023-04-26T15:40:29.912Z,5.52
2023-04-26T15:41:52.254Z,4.64
2023-04-26T15:43:14.175Z,4.98
2023-04-26T15:44:36.774Z,4.96
2023-04-26T15:45:58.385Z,4.63
2023-04-26T15:47:20.632Z,6.34
2023-04-26T15:48:42.619Z,3.77
2023-04-26T15:50:05.652Z,4.93
2023-04-26T15:51:27.409Z,5.86
2023-04-26T15:52:49.484Z,3.49
2023-04-26T15:54:11.369Z,6.41
2023-04-26T15:55:32.857Z,5.00
2023-04-26T15:56:56.082Z,4.13
2023-04-26T15:58:17.419Z,5.11
2023-04-26T15:59:39.329Z,5.95
2023-04-26T16:01:01.121Z,3.94
2023-04-26T16:02:23.040Z,7.79
2023-04-26T16:03:47.401Z,4.42
2023-04-26T16:05:09.185Z,4.64
2023-04-26T16:06:31.257Z,4.43
2023-04-26T16:07:52.875Z,2.88
2023-04-26T16:09:24.903Z,4.37
2023-04-26T16:10:38.639Z,5.08
2023-04-26T16:11:59.811Z,4.63
2023-04-26T16:13:23.203Z,4.98
2023-04-26T16:14:45.186Z,4.91
2023-04-26T16:16:08.092Z,3.19
2023-04-26T16:17:29.876Z,3.67
2023-04-26T16:18:51.800Z,2.54
2023-04-26T16:20:13.802Z,4.31
2023-04-26T16:21:35.120Z,3.30
2023-04-26T16:22:56.841Z,5.33
2023-04-26T16:24:19.631Z,6.83
2023-04-26T16:25:43.154Z,4.42
2023-04-26T16:27:04.783Z,4.57
2023-04-26T16:28:26.802Z,3.49
2023-04-26T16:29:48.383Z,5.25
2023-04-26T16:31:11.880Z,4.54
2023-04-26T16:33:55.345Z,5.05
2023-04-26T16:35:16.452Z,4.49
2023-04-26T16:36:38.480Z,4.37
2023-04-26T16:38:00.489Z,4.34
2023-04-26T16:39:22.218Z,5.52
2023-04-26T16:40:44.067Z,3.89
2023-04-26T16:42:05.874Z,5.40
2023-04-26T16:43:27.665Z,6.14
2023-04-26T16:44:50.804Z,4.76
2023-04-26T16:47:36.671Z,3.00
2023-04-26T16:48:57.859Z,4.14
2023-04-26T16:50:19.674Z,4.74
2023-04-26T16:51:41.598Z,6.61
2023-04-26T16:53:03.169Z,5.33
2023-04-26T16:54:27.676Z,5.72
2023-04-26T16:55:49.532Z,4.90
2023-04-26T16:57:11.651Z,5.77
2023-04-26T16:58:33.965Z,3.54
2023-04-26T16:59:55.976Z,4.74
2023-04-26T17:01:17.497Z,3.99
2023-04-26T17:02:39.137Z,4.10
2023-04-26T17:04:01.854Z,5.06
2023-04-26T17:05:23.926Z,2.92
2023-04-26T17:06:45.507Z,6.57
2023-04-26T17:08:07.985Z,4.40
2023-04-26T17:09:30.058Z,6.06
2023-04-26T17:10:51.550Z,6.17
2023-04-26T17:12:14.898Z,5.49
2023-04-26T17:14:57.963Z,4.56
2023-04-26T17:16:19.692Z,4.82
2023-04-26T17:17:41.077Z,5.70
2023-04-26T17:19:02.994Z,4.83
2023-04-26T17:20:24.823Z,7.61
2023-04-26T17:21:46.913Z,6.40
2023-04-26T17:23:08.801Z,4.13
2023-04-26T17:24:30.258Z,5.76
2023-04-26T17:25:55.126Z,5.72
2023-04-26T17:27:17.089Z,4.45
2023-04-26T17:28:39.050Z,6.35
2023-04-26T17:30:00.594Z,6.20
2023-04-26T17:31:22.383Z,9.68
2023-04-26T17:32:43.833Z,8.65
2023-04-26T17:34:05.205Z,10.52
2023-04-26T17:35:27.183Z,8.46
2023-04-26T17:36:49.521Z,8.38
2023-04-26T17:38:12.194Z,5.53
2023-04-26T17:39:33.710Z,6.55
2023-04-26T17:40:54.807Z,4.88
2023-04-26T17:42:18.234Z,5.88
2023-04-26T17:43:40.142Z,4.26
2023-04-26T17:45:01.534Z,4.32
2023-04-26T17:46:23.188Z,6.12
2023-04-26T17:47:45.687Z,5.44
2023-04-26T17:49:07.558Z,5.99
2023-04-26T17:50:28.814Z,5.91
2023-04-26T17:51:51.202Z,5.32
2023-04-26T17:53:13.441Z,6.10
2023-04-26T17:54:35.528Z,5.36
2023-04-26T17:55:57.992Z,7.18
2023-04-26T17:57:19.540Z,4.22
2023-04-26T17:58:41.185Z,7.29
2023-04-26T18:00:03.093Z,5.96
2023-04-26T18:01:25.359Z,9.94
2023-04-26T18:02:47.153Z,7.46
2023-04-26T18:04:10.659Z,5.62
2023-04-26T18:05:35.371Z,7.03
2023-04-26T18:06:57.601Z,5.72
2023-04-26T18:08:21.186Z,3.51
2023-04-26T18:11:04.337Z,6.89
2023-04-26T18:12:26.302Z,6.18
2023-04-26T18:13:47.810Z,5.66
2023-04-26T18:15:10.729Z,6.76
2023-04-26T18:16:38.563Z,8.18
2023-04-26T18:18:00.271Z,6.28
2023-04-26T18:19:21.620Z,8.17
2023-04-26T18:20:44.776Z,7.78
2023-04-26T18:22:06.293Z,3.67
2023-04-26T18:23:28.103Z,5.24
2023-04-26T18:24:50.241Z,4.75
2023-04-26T18:26:11.429Z,6.96
2023-04-26T18:27:33.241Z,5.26
2023-04-26T18:28:55.601Z,4.86
2023-04-26T18:30:17.349Z,5.34
2023-04-26T18:31:39.863Z,4.91
2023-04-26T18:33:02.319Z,4.34
2023-04-26T18:34:24.267Z,5.48
2023-04-26T18:35:47.961Z,6.08
2023-04-26T18:37:11.163Z,4.86
2023-04-26T18:38:34.270Z,3.30
2023-04-26T18:39:57.401Z,3.54
2023-04-26T18:42:41.244Z,5.44
2023-04-26T18:44:04.548Z,6.22
2023-04-26T18:45:26.591Z,5.26
2023-04-26T18:46:49.276Z,3.79
2023-04-26T18:49:34.309Z,2.96
2023-04-26T18:50:56.173Z,5.41
2023-04-26T18:52:18.967Z,4.11
2023-04-26T18:53:41.393Z,4.48
2023-04-26T18:55:03.476Z,4.49
2023-04-26T18:56:25.455Z,4.36
2023-04-26T18:57:47.251Z,5.78
2023-04-26T18:59:08.614Z,4.15
2023-04-26T19:00:30.257Z,6.64
2023-04-26T19:01:52.550Z,5.66
2023-04-26T19:03:14.214Z,5.47
2023-04-26T19:04:37.862Z,6.09
2023-04-26T19:05:59.759Z,6.22
2023-04-26T19:07:21.322Z,4.87
2023-04-26T19:08:43.998Z,6.03
2023-04-26T19:10:07.109Z,4.01
2023-04-26T19:11:28.814Z,5.99
2023-04-26T19:12:50.657Z,5.90
2023-04-26T19:14:13.676Z,4.56
2023-04-26T19:15:35.957Z,6.01
2023-04-26T19:16:58.219Z,4.62
2023-04-26T19:18:21.592Z,4.79
2023-04-26T19:19:43.631Z,6.31
2023-04-26T19:21:06.212Z,6.39
2023-04-26T19:22:27.953Z,4.96
2023-04-26T19:23:49.528Z,5.97
2023-04-26T19:25:11.029Z,5.56
2023-04-26T19:26:32.612Z,5.04
2023-04-26T19:27:54.895Z,5.09
2023-04-26T19:29:16.890Z,5.99
2023-04-26T19:30:40.095Z,4.39
2023-04-26T19:32:01.879Z,7.43
2023-04-26T19:33:24.840Z,5.66
2023-04-26T19:34:46.460Z,4.61
2023-04-26T19:36:09.166Z,6.42
2023-04-26T19:37:31.320Z,6.09
2023-04-26T19:38:53.147Z,4.42
2023-04-26T19:40:15.399Z,5.54
2023-04-26T19:41:37.643Z,3.80
2023-04-26T19:42:59.806Z,4.08
2023-04-26T19:44:21.987Z,5.96
2023-04-26T19:45:43.964Z,4.07
2023-04-26T19:47:05.728Z,5.64
2023-04-26T19:48:27.299Z,5.19
2023-04-26T19:49:49.563Z,4.69
2023-04-26T19:51:15.753Z,5.30
2023-04-26T19:52:38.923Z,3.69
2023-04-26T19:54:00.611Z,4.63
2023-04-26T19:55:23.406Z,4.39
2023-04-26T19:56:45.227Z,4.09
2023-04-26T19:58:06.666Z,4.98
2023-04-26T19:59:29.657Z,4.90
2023-04-26T20:00:52.252Z,4.11
2023-04-26T20:02:14.620Z,4.44
2023-04-26T20:03:37.205Z,3.93
2023-04-26T20:04:59.230Z,4.68
2023-04-26T20:06:21.422Z,4.94
2023-04-26T20:07:43.318Z,3.91
2023-04-26T20:09:05.422Z,5.87
2023-04-26T20:10:30.414Z,6.67
2023-04-26T20:11:52.033Z,5.17
2023-04-26T20:13:15.260Z,4.32
2023-04-26T20:14:37.112Z,3.81
2023-04-26T20:15:58.422Z,4.32
2023-04-26T20:17:19.999Z,4.66
2023-04-26T20:18:43.033Z,2.87
2023-04-26T20:20:06.179Z,4.68
2023-04-26T20:21:29.028Z,4.73
2023-04-26T20:22:51.070Z,3.50
2023-04-26T20:24:13.219Z,3.52
2023-04-26T20:25:34.751Z,4.56
2023-04-26T20:26:57.136Z,4.07
2023-04-26T20:28:19.117Z,3.64
2023-04-26T20:29:40.411Z,5.96
2023-04-26T20:31:02.650Z,6.71
2023-04-26T20:32:24.927Z,9.80
2023-04-26T20:33:47.041Z,4.83
2023-04-26T20:35:09.937Z,5.08
2023-04-26T20:36:33.082Z,5.02
2023-04-26T20:37:54.082Z,5.88
2023-04-26T20:39:17.274Z,4.60
2023-04-26T20:40:38.801Z,4.94
2023-04-26T20:42:00.026Z,5.71
2023-04-26T20:43:21.705Z,3.86
2023-04-26T20:44:43.546Z,3.61
2023-04-26T20:46:06.144Z,3.91
2023-04-26T20:47:27.957Z,5.63
2023-04-26T20:48:50.234Z,4.40
2023-04-26T20:50:11.349Z,4.44
2023-04-26T20:51:33.110Z,3.24
2023-04-26T20:52:54.767Z,4.39
2023-04-26T20:54:16.476Z,5.07
2023-04-26T20:55:38.282Z,3.66
2023-04-26T20:57:01.844Z,5.08
2023-04-26T20:58:24.135Z,3.03
2023-04-26T20:59:45.127Z,4.27
2023-04-26T21:01:07.419Z,6.32
2023-04-26T21:02:29.327Z,4.19
2023-04-26T21:03:51.300Z,3.66
2023-04-26T21:05:16.233Z,4.04
2023-04-26T21:06:39.436Z,4.92
2023-04-26T21:08:02.639Z,4.73
2023-04-26T21:09:24.436Z,4.01
2023-04-26T21:10:45.878Z,3.81
2023-04-26T21:12:07.784Z,4.01
2023-04-26T21:13:31.443Z,3.57
2023-04-26T21:14:53.808Z,5.57
2023-04-26T21:16:19.529Z,4.86
2023-04-26T21:17:41.722Z,4.48
2023-04-26T21:19:03.164Z,3.68
2023-04-26T21:20:30.620Z,6.32
2023-04-26T21:21:52.687Z,5.39
2023-04-26T21:23:14.531Z,4.81
2023-04-26T21:24:36.989Z,4.11
2023-04-26T21:25:59.071Z,5.82
2023-04-26T21:27:21.243Z,4.41
2023-04-26T21:28:44.713Z,5.14
2023-04-26T21:30:08.388Z,4.12
2023-04-26T21:31:30.371Z,3.24
2023-04-26T21:32:52.079Z,4.64
2023-04-26T21:34:13.560Z,3.02
2023-04-26T21:35:35.193Z,3.94
2023-04-26T21:36:56.577Z,3.01
2023-04-26T21:38:18.705Z,4.79
2023-04-26T21:39:42.657Z,3.58
2023-04-26T21:41:04.682Z,5.13
2023-04-26T21:42:26.678Z,4.19
2023-04-26T21:43:49.506Z,3.82
2023-04-26T21:45:12.033Z,4.96
2023-04-26T21:46:34.045Z,6.16
2023-04-26T21:47:57.495Z,3.63
2023-04-26T21:49:19.155Z,5.61
2023-04-26T21:50:41.751Z,2.59
2023-04-26T21:52:03.334Z,5.17
2023-04-26T21:53:25.210Z,6.41
2023-04-26T21:54:47.079Z,5.33
2023-04-26T21:56:09.917Z,4.67
2023-04-26T21:57:31.016Z,4.94
2023-04-26T21:58:52.692Z,4.18
2023-04-26T22:00:15.044Z,6.43
2023-04-26T22:01:37.715Z,7.47
2023-04-26T22:02:59.595Z,6.52
2023-04-26T22:04:21.550Z,3.93
2023-04-26T22:05:43.646Z,5.09
2023-04-26T22:07:05.596Z,5.73
2023-04-26T22:08:28.105Z,3.07
2023-04-26T22:09:51.233Z,5.77
2023-04-26T22:11:12.938Z,5.58
2023-04-26T22:12:35.141Z,3.87
2023-04-26T22:13:57.842Z,4.36
2023-04-26T22:15:20.055Z,4.21
2023-04-26T22:16:41.958Z,4.22
2023-04-26T22:18:05.620Z,6.01
2023-04-26T22:19:29.138Z,4.59
2023-04-26T22:20:52.123Z,6.90
2023-04-26T22:22:16.688Z,6.33
2023-04-26T22:23:38.511Z,4.94
2023-04-26T22:25:01.178Z,4.03
2023-04-26T22:26:25.397Z,4.83
2023-04-26T22:27:48.274Z,3.70
2023-04-26T22:29:10.711Z,5.54
2023-04-26T22:30:33.617Z,6.37
2023-04-26T22:31:55.630Z,5.28
2023-04-26T22:33:18.272Z,6.96
2023-04-26T22:34:42.275Z,3.42
2023-04-26T22:36:04.395Z,3.79
2023-04-26T22:37:27.614Z,3.46
2023-04-26T22:38:51.308Z,3.63
2023-04-26T22:40:16.160Z,3.64
2023-04-26T22:41:38.489Z,4.73
2023-04-26T22:43:01.764Z,3.34
2023-04-26T22:44:25.166Z,4.20
2023-04-26T22:45:48.494Z,4.61
2023-04-26T22:48:32.608Z,6.04
2023-04-26T22:49:54.696Z,5.93
2023-04-26T22:51:16.694Z,4.62
2023-04-26T22:52:39.031Z,4.47
2023-04-26T22:54:01.742Z,4.24
2023-04-26T22:55:24.284Z,7.33
2023-04-26T22:56:46.215Z,4.52
2023-04-26T22:58:08.323Z,5.62
2023-04-26T22:59:30.388Z,4.22
2023-04-26T23:00:52.378Z,5.73
2023-04-26T23:02:14.166Z,4.73
2023-04-26T23:03:36.879Z,4.39
2023-04-26T23:05:00.569Z,5.39
2023-04-26T23:06:22.575Z,3.14
2023-04-26T23:07:44.574Z,4.32
2023-04-26T23:09:06.476Z,4.05
2023-04-26T23:10:29.010Z,4.29
2023-04-26T23:11:50.981Z,7.49
2023-04-26T23:13:13.481Z,4.41
2023-04-26T23:14:35.301Z,3.17
2023-04-26T23:15:58.803Z,4.79
2023-04-26T23:17:20.750Z,5.71
2023-04-26T23:18:43.030Z,4.23
2023-04-26T23:20:07.028Z,5.39
2023-04-26T23:21:28.805Z,7.68
2023-04-26T23:22:50.049Z,4.27
2023-04-26T23:24:11.995Z,4.95
2023-04-26T23:25:33.997Z,4.94
2023-04-26T23:26:57.510Z,4.17
2023-04-26T23:28:19.459Z,5.91
2023-04-26T23:29:42.032Z,3.67
2023-04-26T23:31:03.452Z,4.54
2023-04-26T23:32:25.805Z,5.63
2023-04-26T23:33:47.033Z,6.83
2023-04-26T23:35:09.546Z,5.22
2023-04-26T23:36:31.978Z,5.51
2023-04-26T23:37:53.854Z,5.91
2023-04-26T23:39:16.086Z,8.04
2023-04-26T23:40:37.810Z,5.95
2023-04-26T23:42:00.261Z,6.25
2023-04-26T23:43:21.719Z,5.89
2023-04-26T23:44:43.712Z,5.44
2023-04-26T23:46:06.264Z,5.90
2023-04-26T23:47:29.679Z,8.12
2023-04-26T23:48:52.231Z,6.31
2023-04-26T23:50:15.893Z,4.54
2023-04-26T23:51:37.026Z,6.79
2023-04-26T23:52:59.677Z,3.99
2023-04-26T23:54:21.631Z,5.84
2023-04-26T23:55:43.738Z,4.12
2023-04-26T23:57:05.868Z,4.51
2023-04-26T23:58:27.871Z,4.88
2023-04-26T23:59:49.752Z,6.93
